Terminal Aerodrome Forecast
Issued by NWS King Salmon, AK

Current Version | Previous Version | Text Only | Print | Product List | Glossary On
Versions: 1 2 3 4 5 6 7 8 9 10 11 12 13 14 15 16
000
FTAK31 PANC 241139
TAFAKN
TAF
PAKN 241139Z 2412/2512 21007KT 3SM -RA BR BKN003
      TEMPO 2412/2415 6SM BR
     FM241500 31007KT P6SM SCT025 BKN040
     FM241900 34008KT P6SM SCT080
     FM250900 VRB03KT P6SM SKC=

USA.gov is the U.S. government's official web portal to all federal, state and local government web resources and services.